Decoded Metar for KSUT (SOUTHPORT in NC, USA) (IATA:SUT) | Meteo·Mobile Aviation Weather
aviador You're here:

KSUT Decoded Metar

SOUTHPORT in NC, USA
Report Time2018-10-15 18:45:00
UTC Time2018-10-15 18:52:45
Flight Rules vfr VFR
Wind190° at 05 kt
W.Decomp.*RWY 23: 4.2 kt HW 2.6 kt LCW
W.Rank190° ranks 10
Current wind is below 190° avg. (6.3)
Visibility9999 m
Phenomena:N/A
Clouds:N/A
Expected CloudBase > 3,200 ft AGL from Temp-Dew spread
CeilingNone
Temp28°C (ISA +13)
Dew Point20°C (62% RH)
Heat Index29.7°C
QNH1021 hPa
Density Alt1,568 ft
Elevation26 ft
Report Wrong Elevation
Raw Report
KSUT 151845Z AUTO 19005KT 10SM CLR 28/20 A3014 RMK AO2
T02780202=

Extra information for KSUT:More info

Metar Taf Metar & Taf Last 4 Metars F.Rules Stats Wind Profile Meteogram Temp Stats Airport Information Weather charts Add Link Nearby VenuesMetar ALERT Operation Metar Decoded Social comments

AIRNAV info for KSUT